Time;durP1;ratioP1;P1;durP2;ratioP2;P2;SDS_P1;SDS_P2;PMS_P1;PMS_P2;Temp;Humidity;BMP_temperature;BMP_pressure;BME280_temperature;BME280_humidity;BME280_pressure;Samples;Min_cycle;Max_cycle;Signal;HPM_P1;HPM_P2
2023/02/25 00:02:23;;;;;;;;;;;7.60;81.30;;;6.22;65.87;99569.53;5010340;28;19925;-87
2023/02/25 00:04:50;;;;;;;;;;;7.50;82.00;;;6.34;65.77;99570.50;5009246;28;19933;-86
2023/02/25 00:07:17;;;;;;;;;;;7.50;82.20;;;6.44;65.40;99563.81;4991214;28;19925;-87
2023/02/25 00:09:44;;;;;;;;;;;7.60;81.90;;;6.44;65.60;99573.56;4979241;28;19934;-87
2023/02/25 00:12:11;;;;;;;;;;;7.60;82.20;;;6.47;64.67;99570.50;5006957;28;20024;-86
2023/02/25 00:14:39;;;;;;;;;;;7.60;81.60;;;6.46;65.50;99568.88;5008876;28;19976;-86
2023/02/25 00:17:06;;;;;;;;;;;7.60;82.10;;;6.49;65.54;99565.81;4988273;28;20361;-86
2023/02/25 00:19:34;;;;;;;;;;;7.60;82.10;;;6.36;64.57;99557.91;4983889;28;19929;-86
2023/02/25 00:22:01;;;;;;;;;;;7.60;81.10;;;6.31;65.17;99552.41;5005449;28;20020;-86
2023/02/25 00:24:28;;;;;;;;;;;7.60;81.80;;;6.31;65.63;99560.34;4983491;28;19936;-86
2023/02/25 00:26:55;;;;;;;;;;;7.50;82.20;;;6.38;65.41;99555.84;5004275;28;19931;-86
2023/02/25 00:29:22;;;;;;;;;;;7.60;81.90;;;6.33;66.03;99553.00;4988782;28;20012;-86
2023/02/25 00:31:49;;;;;;;;;;;7.60;82.30;;;6.35;65.99;99551.78;4991701;28;19935;-86
2023/02/25 00:34:17;;;;;;;;;;;7.60;82.40;;;6.38;66.18;99546.06;5001490;28;20028;-86
2023/02/25 00:36:45;;;;;;;;;;;7.60;82.40;;;6.49;65.76;99543.81;4991817;28;19930;-86
2023/02/25 00:39:12;;;;;;;;;;;7.60;82.20;;;6.46;64.76;99550.34;4986623;28;19937;-87
2023/02/25 00:41:39;;;;;;;;;;;7.60;81.40;;;6.44;65.10;99547.91;4991666;28;19929;-86
2023/02/25 00:44:07;;;;;;;;;;;7.60;82.10;;;6.48;65.56;99550.94;4994681;28;20044;-86
2023/02/25 00:46:34;;;;;;;;;;;7.60;82.30;;;6.49;65.59;99544.63;5001238;28;19930;-86
2023/02/25 00:49:01;;;;;;;;;;;7.60;82.30;;;6.52;65.19;99544.22;5001033;28;19929;-86
2023/02/25 00:51:30;;;;;;;;;;;7.70;82.20;;;6.56;65.25;99553.38;5002543;28;19926;-86
2023/02/25 00:53:58;;;;;;;;;;;7.70;82.00;;;6.56;65.23;99553.38;4979495;28;20036;-85
2023/02/25 00:56:26;;;;;;;;;;;7.80;82.20;;;6.58;65.20;99553.16;5008315;28;19937;-86
2023/02/25 00:58:53;;;;;;;;;;;7.70;82.00;;;6.51;64.51;99547.88;4987562;28;19929;-86
2023/02/25 01:01:22;;;;;;;;;;;7.70;81.40;;;6.45;64.87;99548.72;4988806;28;19957;-85
2023/02/25 01:03:51;;;;;;;;;;;7.60;81.40;;;6.44;64.87;99549.72;5008410;28;19951;-86
2023/02/25 01:06:18;;;;;;;;;;;7.60;81.60;;;6.45;64.63;99546.88;5009155;28;20016;-85
2023/02/25 01:08:45;;;;;;;;;;;7.60;81.60;;;6.45;65.16;99557.47;4990481;28;20398;-85
2023/02/25 01:11:16;;;;;;;;;;;7.60;82.00;;;6.49;65.47;99563.19;4994374;28;19930;-85
2023/02/25 01:13:43;;;;;;;;;;;7.60;82.20;;;6.48;65.22;99561.53;4990785;28;19949;-87
2023/02/25 01:16:13;;;;;;;;;;;7.60;81.80;;;6.47;64.91;99554.59;5008157;28;20624;-87
2023/02/25 01:18:40;;;;;;;;;;;7.70;81.90;;;6.47;65.29;99557.25;4988860;28;19929;-87
2023/02/25 01:21:08;;;;;;;;;;;7.60;81.70;;;6.45;65.22;99562.78;5000817;28;19929;-86
2023/02/25 01:23:35;;;;;;;;;;;7.60;81.80;;;6.41;64.92;99561.56;4985312;28;19933;-86
2023/02/25 01:26:04;;;;;;;;;;;7.60;81.90;;;6.47;65.52;99559.91;5007941;28;19957;-86
2023/02/25 01:28:32;;;;;;;;;;;7.60;82.00;;;6.43;64.93;99559.50;4987881;28;20390;-87
2023/02/25 01:30:59;;;;;;;;;;;7.60;81.20;;;6.44;64.87;99561.16;4986481;28;19930;-86
2023/02/25 01:33:26;;;;;;;;;;;7.60;81.60;;;6.43;64.88;99558.69;4990089;28;20648;-86
2023/02/25 01:35:53;;;;;;;;;;;7.60;81.60;;;6.43;65.06;99550.75;4993839;28;19964;-86
2023/02/25 01:38:20;;;;;;;;;;;7.60;81.60;;;6.42;64.93;99557.06;4985326;28;19930;-86
2023/02/25 01:40:47;;;;;;;;;;;7.60;81.80;;;6.48;65.23;99552.78;4984365;28;20509;-87
2023/02/25 01:43:15;;;;;;;;;;;7.70;82.10;;;6.48;65.20;99561.53;4991185;28;19961;-86
2023/02/25 01:45:44;;;;;;;;;;;7.60;81.90;;;6.52;65.03;99562.75;4985354;28;20036;-86
2023/02/25 01:48:15;;;;;;;;;;;7.70;82.00;;;6.50;64.70;99566.63;5004849;28;19934;-86
2023/02/25 01:50:46;;;;;;;;;;;7.60;81.60;;;6.51;64.84;99555.03;4990856;28;19984;-87
2023/02/25 01:53:15;;;;;;;;;;;7.60;81.80;;;6.45;65.23;99568.06;4988235;28;19926;-87
2023/02/25 01:55:43;;;;;;;;;;;7.60;81.90;;;6.43;65.06;99574.56;4987044;28;19937;-87
2023/02/25 01:58:12;;;;;;;;;;;7.60;81.80;;;6.49;65.44;99565.81;4988320;28;19936;-86
2023/02/25 02:00:39;;;;;;;;;;;7.60;82.00;;;6.51;65.46;99571.72;5010981;28;20016;-86
2023/02/25 02:03:14;;;;;;;;;;;7.70;82.00;;;6.49;65.10;99565.81;5012854;28;19930;-87
2023/02/25 02:05:54;;;;;;;;;;;7.60;81.70;;;6.50;65.13;99566.63;5012032;28;19996;-86
2023/02/25 02:08:23;;;;;;;;;;;7.60;81.90;;;6.51;65.13;99562.97;4989934;28;19925;-87
2023/02/25 02:10:50;;;;;;;;;;;7.60;82.00;;;6.56;65.05;99569.25;4993709;28;19930;-86
2023/02/25 02:13:17;;;;;;;;;;;7.60;81.80;;;6.48;64.77;99556.22;4990009;28;19936;-87
2023/02/25 02:15:49;;;;;;;;;;;7.60;81.70;;;6.27;64.79;99572.38;5010485;28;20333;-87
2023/02/25 02:18:20;;;;;;;;;;;7.50;81.60;;;6.20;65.92;99564.44;4997378;28;19930;-86
2023/02/25 02:20:53;;;;;;;;;;;7.40;82.20;;;6.25;66.17;99566.47;5011498;28;19947;-87
2023/02/25 02:23:50;;;;;;;;;;;7.40;82.40;;;6.23;65.82;99566.66;5002170;28;19953;-86
2023/02/25 02:26:44;;;;;;;;;;;7.40;82.30;;;6.26;65.96;99574.22;5007927;28;20041;-87
2023/02/25 02:29:52;;;;;;;;;;;7.40;82.70;;;6.18;65.73;99567.28;5011336;28;19929;-87
2023/02/25 02:32:29;;;;;;;;;;;7.40;82.30;;;6.15;65.92;99566.88;4931922;29;19937;-86
2023/02/25 02:35:04;;;;;;;;;;;7.30;82.60;;;6.24;66.51;99563.00;4996892;28;19972;-87
2023/02/25 02:37:38;;;;;;;;;;;7.40;82.80;;;6.29;66.01;99562.38;4988225;28;19933;-87
2023/02/25 02:40:16;;;;;;;;;;;7.40;82.80;;;6.23;65.82;99557.91;4994099;28;20390;-87
2023/02/25 02:42:51;;;;;;;;;;;7.40;82.40;;;6.26;66.42;99563.63;5010874;28;19972;-87
2023/02/25 02:45:22;;;;;;;;;;;7.40;83.00;;;6.25;66.26;99553.25;4993189;28;19930;-86
2023/02/25 02:47:54;;;;;;;;;;;7.40;82.80;;;6.23;66.16;99558.72;4978122;28;19929;-86
2023/02/25 02:50:28;;;;;;;;;;;7.40;82.80;;;6.33;66.39;99558.28;4985542;28;19936;-86
2023/02/25 02:53:00;;;;;;;;;;;7.40;82.90;;;6.26;65.98;99555.66;5009411;28;19933;-86
2023/02/25 02:55:33;;;;;;;;;;;7.60;82.70;;;6.14;66.32;99568.69;5011005;28;20005;-86
2023/02/25 02:58:03;;;;;;;;;;;7.40;82.70;;;6.23;66.64;99563.19;5003542;28;19926;-86
2023/02/25 03:00:36;;;;;;;;;;;7.40;83.10;;;6.32;66.90;99567.28;5007069;28;20008;-86
2023/02/25 03:03:07;;;;;;;;;;;7.40;83.30;;;6.31;66.77;99561.16;4982630;28;20015;-87
2023/02/25 03:05:36;;;;;;;;;;;7.50;83.70;;;6.32;67.11;99560.13;5008730;28;19930;-87
2023/02/25 03:08:09;;;;;;;;;;;7.40;83.70;;;6.38;66.76;99559.31;5009975;28;20386;-87
2023/02/25 03:10:36;;;;;;;;;;;7.50;83.60;;;6.35;66.95;99565.03;5003138;28;19934;-87
2023/02/25 03:13:03;;;;;;;;;;;7.50;83.50;;;6.34;67.07;99565.22;4988046;28;19929;-86
2023/02/25 03:15:31;;;;;;;;;;;7.50;83.70;;;6.32;66.87;99572.56;4991475;28;19961;-87
2023/02/25 03:18:03;;;;;;;;;;;7.50;83.60;;;6.31;66.82;99565.66;4991207;28;20032;-86
2023/02/25 03:20:36;;;;;;;;;;;7.50;83.60;;;6.38;66.93;99566.44;5010989;28;19929;-86
2023/02/25 03:23:07;;;;;;;;;;;7.50;83.50;;;6.31;67.50;99573.59;4995811;28;21432;-86
2023/02/25 03:25:46;;;;;;;;;;;7.50;83.70;;;6.38;67.25;99577.03;4989972;28;19933;-87
2023/02/25 03:28:22;;;;;;;;;;;7.50;83.50;;;6.32;66.94;99586.63;4987961;28;19929;-87
2023/02/25 03:30:52;;;;;;;;;;;7.50;83.50;;;6.39;66.77;99590.09;5010639;28;19929;-86
2023/02/25 03:33:26;;;;;;;;;;;7.50;83.30;;;6.43;66.20;99579.88;4989514;28;19926;-87
2023/02/25 03:35:56;;;;;;;;;;;7.60;83.20;;;6.40;66.36;99585.59;4987475;28;19937;-87
2023/02/25 03:38:26;;;;;;;;;;;7.60;82.90;;;6.39;66.21;99583.94;5002461;23;19929;-79
2023/02/25 03:40:54;;;;;;;;;;;7.60;83.10;;;6.38;66.53;99588.44;5000705;28;19936;-80
2023/02/25 03:43:25;;;;;;;;;;;7.60;83.10;;;6.42;66.61;99594.13;4992385;28;19937;-79
2023/02/25 03:45:52;;;;;;;;;;;7.60;83.20;;;6.43;66.61;99585.97;4988062;28;19929;-79
2023/02/25 03:48:21;;;;;;;;;;;7.60;83.30;;;6.48;66.41;99577.41;4985841;28;19929;-79
2023/02/25 03:50:52;;;;;;;;;;;7.60;83.10;;;6.47;66.48;99582.94;4988394;28;20389;-79
2023/02/25 03:53:21;;;;;;;;;;;7.60;83.30;;;6.38;66.50;99588.44;4991586;28;19984;-79
2023/02/25 03:55:58;;;;;;;;;;;7.60;83.00;;;6.38;66.13;99584.97;4989287;28;19972;-79
2023/02/25 03:58:25;;;;;;;;;;;7.60;82.90;;;6.39;66.86;99587.44;4991589;28;19930;-80
2023/02/25 04:00:56;;;;;;;;;;;7.50;83.20;;;6.36;65.96;99592.31;4989645;28;19929;-79
2023/02/25 04:03:24;;;;;;;;;;;7.50;82.90;;;6.34;66.04;99595.16;5006521;28;19933;-79
2023/02/25 04:05:51;;;;;;;;;;;7.50;83.10;;;6.41;66.22;99597.81;4984732;28;19964;-79
2023/02/25 04:08:19;;;;;;;;;;;7.50;83.00;;;6.47;66.04;99591.69;4983859;28;19933;-79
2023/02/25 04:10:47;;;;;;;;;;;7.50;83.10;;;6.48;65.75;99603.09;4986884;28;19936;-79
2023/02/25 04:13:19;;;;;;;;;;;7.60;82.80;;;6.44;65.83;99600.03;4975107;28;19934;-80
2023/02/25 04:15:48;;;;;;;;;;;7.50;82.80;;;6.50;66.11;99593.94;4995326;28;19944;-79
2023/02/25 04:18:15;;;;;;;;;;;7.60;82.80;;;6.49;65.98;99599.41;4997855;28;19968;-79
2023/02/25 04:20:42;;;;;;;;;;;7.60;82.60;;;6.51;65.77;99613.28;5009271;28;19929;-79
2023/02/25 04:23:12;;;;;;;;;;;7.60;82.50;;;6.52;65.75;99610.44;5007275;28;20294;-79
2023/02/25 04:25:39;;;;;;;;;;;7.70;82.70;;;6.49;65.45;99616.16;5002187;28;19937;-79
2023/02/25 04:28:08;;;;;;;;;;;7.60;82.00;;;6.45;65.25;99613.09;5008028;28;20545;-79
2023/02/25 04:30:35;;;;;;;;;;;7.60;82.00;;;6.41;64.72;99616.34;5001693;28;19936;-79
2023/02/25 04:33:03;;;;;;;;;;;7.50;81.80;;;6.35;65.02;99617.19;5011941;28;20421;-79
2023/02/25 04:35:30;;;;;;;;;;;7.50;82.20;;;6.41;65.63;99619.00;5000517;28;19933;-79
2023/02/25 04:37:56;;;;;;;;;;;7.50;82.10;;;6.40;65.54;99617.38;5003871;28;19936;-79
2023/02/25 04:40:24;;;;;;;;;;;7.60;82.30;;;6.29;65.12;99612.69;4991519;28;19926;-79
2023/02/25 04:42:51;;;;;;;;;;;7.50;82.10;;;6.36;66.01;99608.22;4994292;28;19933;-79
2023/02/25 04:45:24;;;;;;;;;;;7.50;82.40;;;6.43;65.52;99603.72;4998200;28;20024;-79
2023/02/25 04:47:52;;;;;;;;;;;7.50;82.40;;;6.46;65.48;99598.00;5008402;28;19931;-79
2023/02/25 04:50:19;;;;;;;;;;;7.50;82.20;;;6.50;65.31;99612.47;5009732;28;19934;-79
2023/02/25 04:52:46;;;;;;;;;;;7.60;82.20;;;6.49;65.51;99608.22;4999485;28;20044;-79
2023/02/25 04:55:13;;;;;;;;;;;7.60;82.20;;;6.44;65.15;99621.22;5004303;28;20017;-79
2023/02/25 04:57:41;;;;;;;;;;;7.60;81.90;;;6.47;65.43;99630.59;4982735;28;19937;-79
2023/02/25 05:00:15;;;;;;;;;;;7.60;82.20;;;6.49;65.61;99626.75;5007623;28;19971;-79
2023/02/25 05:02:43;;;;;;;;;;;7.60;82.20;;;6.50;64.87;99609.03;4997048;28;19929;-79
2023/02/25 05:05:10;;;;;;;;;;;7.60;81.60;;;6.49;65.02;99621.44;5007886;28;19940;-79
2023/02/25 05:07:37;;;;;;;;;;;7.60;82.00;;;6.49;64.92;99610.00;5007873;28;19929;-79
2023/02/25 05:10:05;;;;;;;;;;;7.60;81.90;;;6.49;65.08;99607.38;5008641;28;19929;-79
2023/02/25 05:12:32;;;;;;;;;;;7.60;81.80;;;6.51;64.95;99614.09;4992493;28;19929;-79
2023/02/25 05:14:59;;;;;;;;;;;7.70;81.90;;;6.46;64.85;99611.25;4990130;28;19930;-79
2023/02/25 05:17:26;;;;;;;;;;;7.60;81.50;;;6.51;65.17;99611.44;4983255;28;19929;-79
2023/02/25 05:19:54;;;;;;;;;;;7.70;81.60;;;6.50;64.49;99595.78;5007697;28;20309;-79
2023/02/25 05:22:21;;;;;;;;;;;7.60;81.00;;;6.45;64.63;99602.50;5008709;28;19932;-79
2023/02/25 05:24:48;;;;;;;;;;;7.60;81.20;;;6.43;64.82;99606.34;4990118;28;20271;-79
2023/02/25 05:27:15;;;;;;;;;;;7.60;81.30;;;6.40;64.82;99612.91;4999535;28;19930;-79
2023/02/25 05:29:42;;;;;;;;;;;7.60;81.30;;;6.39;65.17;99613.06;4993439;28;19936;-79
2023/02/25 05:32:09;;;;;;;;;;;7.60;81.50;;;6.37;64.04;99617.78;5012544;28;20181;-79
2023/02/25 05:34:36;;;;;;;;;;;7.60;80.80;;;6.36;64.69;99610.84;4995132;28;20382;-79
2023/02/25 05:37:04;;;;;;;;;;;7.60;81.40;;;6.40;64.86;99612.09;4991066;28;19937;-79
2023/02/25 05:39:32;;;;;;;;;;;7.60;81.40;;;6.45;64.98;99607.00;5007376;28;19926;-79
2023/02/25 05:41:59;;;;;;;;;;;7.60;81.60;;;6.50;64.76;99609.81;5007310;28;19925;-79
2023/02/25 05:44:26;;;;;;;;;;;7.60;81.60;;;6.54;64.76;99618.16;5011953;28;20196;-80
2023/02/25 05:46:52;;;;;;;;;;;7.70;81.80;;;6.55;64.86;99620.63;5010490;28;19929;-80
2023/02/25 05:49:19;;;;;;;;;;;7.70;81.80;;;6.57;64.88;99618.56;5006901;28;19926;-83
2023/02/25 05:51:48;;;;;;;;;;;7.70;81.70;;;6.57;64.73;99615.91;5004707;28;19936;-76
2023/02/25 05:54:16;;;;;;;;;;;7.70;81.60;;;6.50;64.66;99622.25;5012307;28;19929;-77
2023/02/25 05:56:44;;;;;;;;;;;7.70;81.40;;;6.48;64.73;99629.59;5011133;28;20309;-80
2023/02/25 05:59:11;;;;;;;;;;;7.60;81.50;;;6.39;64.74;99621.88;4987379;28;20495;-76
2023/02/25 06:01:38;;;;;;;;;;;7.60;81.60;;;6.37;65.52;99623.06;5009584;28;19937;-76
2023/02/25 06:04:05;;;;;;;;;;;7.60;81.60;;;6.37;65.22;99623.06;5012483;28;19929;-75
2023/02/25 06:06:32;;;;;;;;;;;7.60;81.60;;;6.23;65.19;99616.97;4992218;28;19936;-76
2023/02/25 06:08:59;;;;;;;;;;;7.50;81.70;;;6.23;65.10;99624.09;5010877;28;19933;-76
2023/02/25 06:11:30;;;;;;;;;;;7.40;81.70;;;6.22;65.67;99622.47;5011585;28;19929;-76
2023/02/25 06:13:57;;;;;;;;;;;7.40;82.00;;;6.27;65.43;99630.63;5007263;28;19937;-76
2023/02/25 06:16:30;;;;;;;;;;;7.40;82.00;;;6.29;65.83;99623.28;5000118;28;19936;-76
2023/02/25 06:18:58;;;;;;;;;;;7.40;82.50;;;6.28;65.11;99630.41;4994181;28;20310;-76
2023/02/25 06:21:26;;;;;;;;;;;7.40;82.00;;;6.26;65.47;99631.66;5011377;28;20402;-76
2023/02/25 06:23:53;;;;;;;;;;;7.40;82.20;;;6.21;65.92;99632.25;5011966;28;20294;-76
2023/02/25 06:26:20;;;;;;;;;;;7.40;82.50;;;6.25;65.71;99640.59;5009891;28;20021;-75
2023/02/25 06:28:48;;;;;;;;;;;7.40;82.30;;;6.25;65.34;99645.91;5011071;28;19936;-75
2023/02/25 06:31:16;;;;;;;;;;;7.40;82.20;;;6.27;65.32;99646.50;5011282;28;19926;-76
2023/02/25 06:33:44;;;;;;;;;;;7.40;82.10;;;6.27;64.83;99655.25;4981347;28;19930;-76
2023/02/25 06:36:11;;;;;;;;;;;7.40;81.80;;;6.21;65.34;99649.97;4981618;28;20297;-76
2023/02/25 06:38:39;;;;;;;;;;;7.40;81.90;;;6.27;65.62;99657.09;5005917;28;19941;-75
2023/02/25 06:41:07;;;;;;;;;;;7.40;82.10;;;6.30;65.46;99646.09;5009301;28;19930;-76
2023/02/25 06:43:34;;;;;;;;;;;7.40;82.10;;;6.30;65.62;99648.75;4987549;28;20394;-77
2023/02/25 06:46:05;;;;;;;;;;;7.40;82.20;;;6.29;65.36;99653.22;5003376;28;19929;-76
2023/02/25 06:48:33;;;;;;;;;;;7.40;81.80;;;6.24;65.36;99655.66;5010810;28;19925;-87
2023/02/25 06:51:00;;;;;;;;;;;7.40;82.10;;;6.20;65.93;99657.09;5011059;28;19988;-76
2023/02/25 06:53:27;;;;;;;;;;;7.40;82.10;;;6.21;65.47;99664.03;5001112;28;20294;-75
2023/02/25 06:55:54;;;;;;;;;;;7.40;81.80;;;6.29;65.57;99657.69;5006287;28;20021;-77
2023/02/25 06:58:21;;;;;;;;;;;7.40;82.00;;;6.33;65.28;99665.03;5005083;28;19929;-75
2023/02/25 07:00:48;;;;;;;;;;;7.50;82.00;;;6.32;65.50;99676.66;5009802;28;20032;-76
2023/02/25 07:03:17;;;;;;;;;;;7.50;82.00;;;6.37;65.31;99678.69;5011401;28;19949;-76
2023/02/25 07:05:43;;;;;;;;;;;7.50;81.90;;;6.40;64.97;99678.28;5009782;28;19984;-76
2023/02/25 07:08:10;;;;;;;;;;;7.50;82.00;;;6.41;64.99;99677.28;5010503;28;19929;-76
2023/02/25 07:10:39;;;;;;;;;;;7.50;82.10;;;6.33;65.45;99678.28;5015054;28;19925;-76
2023/02/25 07:13:06;;;;;;;;;;;7.50;82.10;;;6.30;65.20;99677.88;5019831;28;19976;-76
2023/02/25 07:15:33;;;;;;;;;;;7.50;81.70;;;6.28;64.58;99686.00;5010143;28;19925;-76
2023/02/25 07:18:00;;;;;;;;;;;7.50;81.40;;;6.25;64.95;99688.25;5008151;28;19933;-76
2023/02/25 07:20:29;;;;;;;;;;;7.40;81.70;;;6.30;65.21;99688.47;5010884;28;20305;-76
2023/02/25 07:22:56;;;;;;;;;;;7.40;82.10;;;6.33;65.31;99683.56;4991473;28;19936;-76
2023/02/25 07:25:23;;;;;;;;;;;7.50;82.20;;;6.37;65.65;99684.78;4991231;28;20397;-76
2023/02/25 07:27:49;;;;;;;;;;;7.50;82.20;;;6.38;65.64;99691.72;5007515;28;19929;-76
2023/02/25 07:30:17;;;;;;;;;;;7.50;82.20;;;6.22;65.68;99694.78;5010419;28;19936;-76
2023/02/25 07:32:44;;;;;;;;;;;7.50;82.40;;;6.25;66.27;99693.56;5006624;28;19965;-76
2023/02/25 07:35:11;;;;;;;;;;;7.40;82.70;;;6.29;66.25;99692.13;4997676;28;19940;-76
2023/02/25 07:37:40;;;;;;;;;;;7.40;83.10;;;6.28;66.72;99699.25;5004226;28;19926;-76
2023/02/25 07:40:11;;;;;;;;;;;7.40;83.30;;;6.30;67.03;99707.00;5009775;28;19937;-76
2023/02/25 07:42:40;;;;;;;;;;;7.40;83.50;;;6.34;67.09;99710.84;4985693;28;19926;-76
2023/02/25 07:45:09;;;;;;;;;;;7.50;83.90;;;6.36;66.92;99708.84;4992552;28;19956;-76
2023/02/25 07:47:36;;;;;;;;;;;7.50;83.90;;;6.39;67.07;99709.25;5008062;28;19926;-76
2023/02/25 07:50:03;;;;;;;;;;;7.50;83.80;;;6.38;66.89;99707.59;5009748;28;20000;-76
2023/02/25 07:52:30;;;;;;;;;;;7.50;83.90;;;6.40;67.15;99713.53;5008635;28;20023;-76
2023/02/25 07:54:59;;;;;;;;;;;7.50;83.80;;;6.42;66.92;99719.44;5010267;28;19937;-77
2023/02/25 07:57:26;;;;;;;;;;;7.50;83.90;;;6.43;67.23;99717.59;5008521;28;19929;-76
2023/02/25 08:00:03;;;;;;;;;;;7.50;83.90;;;6.46;67.16;99719.84;4997520;28;20461;-77
2023/02/25 08:02:45;;;;;;;;;;;7.60;83.90;;;6.44;67.50;99724.50;5004606;28;19929;-77
2023/02/25 08:05:12;;;;;;;;;;;7.60;84.10;;;6.39;67.90;99732.25;5005670;28;19980;-77
2023/02/25 08:07:39;;;;;;;;;;;7.60;84.10;;;6.16;68.03;99733.47;5005476;28;20020;-76
2023/02/25 08:10:09;;;;;;;;;;;7.50;83.80;;;6.24;67.97;99737.72;5001115;28;20299;-76
2023/02/25 08:12:37;;;;;;;;;;;7.50;84.20;;;6.32;68.14;99748.16;5006818;28;19967;-77
2023/02/25 08:15:04;;;;;;;;;;;7.50;84.50;;;6.38;68.39;99747.31;5007977;28;21892;-77
2023/02/25 08:17:34;;;;;;;;;;;7.60;84.60;;;6.34;68.71;99740.81;5007705;28;19948;-77
2023/02/25 08:20:01;;;;;;;;;;;7.60;84.80;;;6.23;68.97;99748.53;5008146;28;19948;-76
2023/02/25 08:22:28;;;;;;;;;;;7.50;84.80;;;6.29;68.69;99750.38;5008157;28;19930;-76
2023/02/25 08:24:54;;;;;;;;;;;7.50;84.90;;;6.36;69.06;99740.63;5005138;28;19929;-77
2023/02/25 08:27:23;;;;;;;;;;;7.50;85.10;;;6.32;69.23;99742.84;4991577;28;19929;-77
2023/02/25 08:29:50;;;;;;;;;;;7.50;85.10;;;6.37;69.01;99743.06;5004845;28;19936;-76
2023/02/25 08:32:17;;;;;;;;;;;7.60;85.10;;;6.44;69.00;99743.06;5009201;28;19929;-76
2023/02/25 08:34:44;;;;;;;;;;;7.60;85.10;;;6.47;68.67;99747.97;4987397;28;19932;-80
2023/02/25 08:37:11;;;;;;;;;;;7.60;85.10;;;6.44;69.29;99749.19;5008139;28;20392;-76
2023/02/25 08:39:38;;;;;;;;;;;7.60;85.20;;;6.45;68.43;99755.31;5009057;28;20012;-75
2023/02/25 08:42:05;;;;;;;;;;;7.60;84.70;;;6.44;68.16;99751.84;5005998;28;20429;-79
2023/02/25 08:44:33;;;;;;;;;;;7.60;84.80;;;6.46;68.75;99756.94;5006956;28;19933;-76
2023/02/25 08:47:03;;;;;;;;;;;7.60;84.70;;;6.41;68.30;99743.47;5001432;28;20062;-76
2023/02/25 08:49:30;;;;;;;;;;;7.60;84.70;;;6.48;68.20;99749.59;4993468;28;19934;-75
2023/02/25 08:51:57;;;;;;;;;;;7.60;84.60;;;6.48;68.22;99756.72;5006605;28;19937;-76
2023/02/25 08:54:24;;;;;;;;;;;7.70;84.90;;;6.45;68.61;99761.41;5004618;28;19929;-75
2023/02/25 08:56:53;;;;;;;;;;;7.60;84.70;;;6.53;68.76;99764.88;4996754;28;19929;-76
2023/02/25 08:59:20;;;;;;;;;;;7.70;85.10;;;6.37;68.86;99761.59;5007768;28;20330;-76
2023/02/25 09:01:50;;;;;;;;;;;7.70;84.80;;;6.44;69.10;99761.59;5008695;28;19925;-75
2023/02/25 09:04:20;;;;;;;;;;;7.70;85.00;;;6.52;68.79;99761.41;5011080;28;20709;-76
2023/02/25 09:06:47;;;;;;;;;;;7.70;85.20;;;6.52;69.24;99776.50;5008830;28;19929;-76
2023/02/25 09:09:15;;;;;;;;;;;7.70;85.30;;;6.56;69.22;99791.78;5012232;28;19925;-75
2023/02/25 09:11:42;;;;;;;;;;;7.80;85.60;;;6.63;69.82;99791.78;5012752;28;19933;-77
2023/02/25 09:14:10;;;;;;;;;;;7.80;85.90;;;6.58;69.95;99792.38;5009127;28;19933;-76
2023/02/25 09:16:37;;;;;;;;;;;7.80;86.00;;;6.58;69.73;99794.22;5007671;28;20279;-76
2023/02/25 09:19:06;;;;;;;;;;;7.80;86.00;;;6.64;69.50;99798.72;5012119;28;19933;-76
2023/02/25 09:21:34;;;;;;;;;;;7.80;85.50;;;6.55;68.44;99799.94;5011297;28;19930;-76
2023/02/25 09:24:01;;;;;;;;;;;7.80;84.60;;;6.52;68.69;99801.16;5012836;28;19965;-76
2023/02/25 09:26:28;;;;;;;;;;;7.80;84.80;;;6.58;69.12;99802.16;5011339;28;20397;-76
2023/02/25 09:28:55;;;;;;;;;;;7.80;85.20;;;6.42;68.55;99790.13;5007790;28;19930;-76
2023/02/25 09:31:22;;;;;;;;;;;7.70;84.30;;;6.55;68.85;99806.06;5009197;28;19933;-77
2023/02/25 09:33:49;;;;;;;;;;;7.80;85.10;;;6.48;68.52;99809.69;5010266;28;19955;-76
2023/02/25 09:36:20;;;;;;;;;;;7.80;84.50;;;6.35;68.03;99810.50;5010793;28;19929;-76
2023/02/25 09:38:48;;;;;;;;;;;7.70;83.80;;;6.30;68.65;99816.38;5020746;23;19929;-75
2023/02/25 09:41:24;;;;;;;;;;;7.70;84.40;;;6.35;68.46;99824.56;5010028;28;19936;-75
2023/02/25 09:43:58;;;;;;;;;;;7.70;84.50;;;6.35;68.53;99818.44;5004965;28;20023;-75
2023/02/25 09:46:27;;;;;;;;;;;7.60;84.20;;;6.41;68.50;99838.81;5007995;28;19968;-75
2023/02/25 09:48:57;;;;;;;;;;;7.60;84.30;;;6.35;67.99;99847.56;5009520;28;20561;-74
2023/02/25 09:51:28;;;;;;;;;;;7.60;84.10;;;6.24;66.21;99851.59;5010477;28;19960;-75
2023/02/25 09:54:02;;;;;;;;;;;7.60;82.70;;;6.12;64.96;99851.34;5011356;28;20325;-74
2023/02/25 09:56:30;;;;;;;;;;;7.50;81.20;;;6.19;65.43;99868.06;5008517;28;19930;-74
2023/02/25 09:58:58;;;;;;;;;;;7.50;81.60;;;6.28;65.58;99870.56;5009819;28;19973;-74
2023/02/25 10:01:33;;;;;;;;;;;7.50;82.10;;;6.31;65.79;99868.31;5001960;28;20006;-74
2023/02/25 10:04:07;;;;;;;;;;;7.50;82.50;;;6.33;66.25;99876.06;5007285;28;19937;-75
2023/02/25 10:06:37;;;;;;;;;;;7.50;82.90;;;6.18;66.81;99879.66;5010657;28;19977;-75
2023/02/25 10:09:13;;;;;;;;;;;7.50;82.90;;;6.10;67.50;99882.50;5011264;28;20318;-75
2023/02/25 10:11:52;;;;;;;;;;;7.50;83.40;;;6.10;67.53;99897.53;5008606;28;19932;-75
2023/02/25 10:14:53;;;;;;;;;;;7.50;83.70;;;6.10;67.50;99897.53;5005629;28;19940;-75
2023/02/25 10:17:26;;;;;;;;;;;7.40;83.30;;;6.15;67.86;99903.09;5005385;28;19965;-75
2023/02/25 10:20:17;;;;;;;;;;;7.40;83.70;;;6.21;68.13;99897.00;4987488;28;19943;-76
2023/02/25 10:22:51;;;;;;;;;;;7.40;84.10;;;6.30;68.23;99895.03;4991400;28;19948;-75
2023/02/25 10:25:22;;;;;;;;;;;7.50;84.70;;;6.36;68.48;99896.88;5002200;28;19959;-75
2023/02/25 10:27:52;;;;;;;;;;;7.50;84.90;;;6.36;68.86;99896.88;5001527;28;19929;-76
2023/02/25 10:30:23;;;;;;;;;;;7.60;84.90;;;6.36;68.71;99905.63;5002189;28;19929;-75
2023/02/25 10:32:51;;;;;;;;;;;7.60;84.90;;;6.27;68.82;99908.63;4987254;28;20405;-75
2023/02/25 10:35:21;;;;;;;;;;;7.50;84.70;;;6.27;68.62;99903.34;5009901;28;19975;-75
2023/02/25 10:37:50;;;;;;;;;;;7.50;84.50;;;6.27;68.07;99903.34;5009016;28;20282;-73
2023/02/25 10:40:18;;;;;;;;;;;7.50;84.30;;;6.19;68.87;99907.78;4945189;28;1857779;-73
2023/02/25 10:42:47;;;;;;;;;;;7.50;84.50;;;6.26;67.99;99914.97;4993768;28;19926;-74
2023/02/25 10:45:22;;;;;;;;;;;7.50;84.20;;;6.32;68.60;99916.81;5001616;28;19983;-75
2023/02/25 10:47:54;;;;;;;;;;;7.50;84.80;;;6.42;69.10;99911.97;5011131;28;19933;-74
2023/02/25 10:50:23;;;;;;;;;;;7.60;85.30;;;6.50;68.78;99911.78;5011933;28;19925;-74
2023/02/25 10:52:57;;;;;;;;;;;7.60;85.10;;;6.57;69.04;99909.97;5010888;28;19937;-74
2023/02/25 10:55:50;;;;;;;;;;;7.70;85.50;;;6.62;68.97;99918.16;5004939;28;19933;-74
2023/02/25 10:58:27;;;;;;;;;;;7.70;85.60;;;6.51;68.11;99928.50;4998928;28;19933;-75
2023/02/25 11:01:00;;;;;;;;;;;7.70;84.40;;;6.53;68.59;99926.47;5010271;28;19944;-74
2023/02/25 11:03:30;;;;;;;;;;;7.70;84.90;;;6.47;67.28;99914.84;5022633;28;19975;-74
2023/02/25 11:06:12;;;;;;;;;;;7.70;83.70;;;6.52;67.93;99917.69;5000503;28;20314;-74
2023/02/25 11:08:41;;;;;;;;;;;7.70;84.20;;;6.36;68.14;99931.28;5003443;28;20166;-73
2023/02/25 11:11:15;;;;;;;;;;;7.70;83.90;;;6.44;68.12;99925.81;5006995;28;19941;-74
2023/02/25 11:13:42;;;;;;;;;;;7.70;84.30;;;6.40;68.16;99933.34;5002348;28;19968;-74
2023/02/25 11:16:12;;;;;;;;;;;7.70;84.30;;;6.33;67.92;99924.56;4985765;28;19952;-74
2023/02/25 11:18:40;;;;;;;;;;;7.60;83.60;;;6.32;67.53;99930.06;5006088;28;19929;-74
2023/02/25 11:21:09;;;;;;;;;;;7.60;83.50;;;6.29;68.17;99928.59;5005505;28;19929;-74
2023/02/25 11:23:38;;;;;;;;;;;7.60;83.80;;;6.38;67.64;99923.97;5008206;28;19961;-74
2023/02/25 11:26:07;;;;;;;;;;;7.60;83.40;;;6.36;66.97;99923.34;5004650;28;19936;-74
2023/02/25 11:28:39;;;;;;;;;;;7.60;83.20;;;6.21;66.95;99922.69;5009020;28;20013;-74
2023/02/25 11:31:09;;;;;;;;;;;7.50;82.90;;;6.28;66.62;99923.50;5003829;28;19925;-74
2023/02/25 11:33:39;;;;;;;;;;;7.50;82.90;;;6.38;66.49;99921.31;5006136;28;19941;-73
2023/02/25 11:36:07;;;;;;;;;;;7.60;83.00;;;6.42;66.75;99911.97;5007957;28;19937;-74
2023/02/25 11:38:35;;;;;;;;;;;7.60;83.30;;;6.45;65.97;99916.88;5005707;28;20279;-78
2023/02/25 11:41:03;;;;;;;;;;;7.60;82.70;;;6.53;67.01;99921.16;5005394;28;19926;-78
2023/02/25 11:43:39;;;;;;;;;;;7.70;84.10;;;6.67;67.08;99930.78;4998962;28;19933;-74
2023/02/25 11:46:10;;;;;;;;;;;7.70;83.70;;;6.68;66.40;99938.53;4995331;28;19995;-74